sensor_id;sensor_type;location;lat;lon;timestamp;P1;durP1;ratioP1;P2;durP2;ratioP2
29314;SDS011;16320;53.954;9.506;2022-07-12T00:02:15;6.68;;;4.15;;
29314;SDS011;16320;53.954;9.506;2022-07-12T00:05:19;6.38;;;4.38;;
29314;SDS011;16320;53.954;9.506;2022-07-12T00:08:23;5.85;;;4.18;;
29314;SDS011;16320;53.954;9.506;2022-07-12T00:11:28;6.18;;;4.43;;
29314;SDS011;16320;53.954;9.506;2022-07-12T00:14:32;5.97;;;4.13;;
29314;SDS011;16320;53.954;9.506;2022-07-12T00:17:37;7.03;;;4.60;;
29314;SDS011;16320;53.954;9.506;2022-07-12T00:20:41;5.15;;;4.50;;
29314;SDS011;16320;53.954;9.506;2022-07-12T00:26:50;7.38;;;4.25;;
29314;SDS011;16320;53.954;9.506;2022-07-12T00:29:54;6.43;;;4.25;;
29314;SDS011;16320;53.954;9.506;2022-07-12T00:32:59;5.68;;;3.90;;
29314;SDS011;16320;53.954;9.506;2022-07-12T00:36:03;5.22;;;4.53;;
29314;SDS011;16320;53.954;9.506;2022-07-12T00:39:09;6.07;;;4.38;;
29314;SDS011;16320;53.954;9.506;2022-07-12T00:42:13;5.65;;;4.57;;
29314;SDS011;16320;53.954;9.506;2022-07-12T00:45:17;8.40;;;4.70;;
29314;SDS011;16320;53.954;9.506;2022-07-12T00:48:21;6.60;;;5.53;;
29314;SDS011;16320;53.954;9.506;2022-07-12T00:51:26;7.85;;;5.35;;
29314;SDS011;16320;53.954;9.506;2022-07-12T00:54:31;8.40;;;5.90;;
29314;SDS011;16320;53.954;9.506;2022-07-12T00:57:35;7.50;;;5.15;;
29314;SDS011;16320;53.954;9.506;2022-07-12T01:00:46;9.63;;;5.53;;
29314;SDS011;16320;53.954;9.506;2022-07-12T01:03:50;7.22;;;4.85;;
29314;SDS011;16320;53.954;9.506;2022-07-12T01:06:56;7.38;;;4.72;;
29314;SDS011;16320;53.954;9.506;2022-07-12T01:10:01;8.25;;;4.68;;
29314;SDS011;16320;53.954;9.506;2022-07-12T01:13:08;8.15;;;4.80;;
29314;SDS011;16320;53.954;9.506;2022-07-12T01:19:19;6.05;;;4.07;;
29314;SDS011;16320;53.954;9.506;2022-07-12T01:22:31;6.93;;;4.07;;
29314;SDS011;16320;53.954;9.506;2022-07-12T01:25:38;5.13;;;4.07;;
29314;SDS011;16320;53.954;9.506;2022-07-12T01:28:42;7.47;;;4.28;;
29314;SDS011;16320;53.954;9.506;2022-07-12T01:31:46;6.00;;;4.00;;
29314;SDS011;16320;53.954;9.506;2022-07-12T01:34:52;5.35;;;3.70;;
29314;SDS011;16320;53.954;9.506;2022-07-12T01:38:09;6.60;;;4.22;;
29314;SDS011;16320;53.954;9.506;2022-07-12T01:41:14;5.80;;;3.97;;
29314;SDS011;16320;53.954;9.506;2022-07-12T01:44:20;6.43;;;3.78;;
29314;SDS011;16320;53.954;9.506;2022-07-12T01:47:25;4.50;;;3.20;;
29314;SDS011;16320;53.954;9.506;2022-07-12T01:50:35;4.10;;;3.45;;
29314;SDS011;16320;53.954;9.506;2022-07-12T01:53:39;5.45;;;3.78;;
29314;SDS011;16320;53.954;9.506;2022-07-12T01:56:43;7.88;;;3.75;;
29314;SDS011;16320;53.954;9.506;2022-07-12T01:59:47;5.03;;;3.35;;
29314;SDS011;16320;53.954;9.506;2022-07-12T02:02:52;8.27;;;3.65;;
29314;SDS011;16320;53.954;9.506;2022-07-12T02:05:57;5.70;;;3.67;;
29314;SDS011;16320;53.954;9.506;2022-07-12T02:12:05;5.45;;;3.50;;
29314;SDS011;16320;53.954;9.506;2022-07-12T02:15:10;6.35;;;3.95;;
29314;SDS011;16320;53.954;9.506;2022-07-12T02:18:14;5.47;;;4.05;;
29314;SDS011;16320;53.954;9.506;2022-07-12T02:21:19;7.22;;;3.78;;
29314;SDS011;16320;53.954;9.506;2022-07-12T02:24:23;5.90;;;3.97;;
29314;SDS011;16320;53.954;9.506;2022-07-12T02:27:28;6.03;;;4.50;;
29314;SDS011;16320;53.954;9.506;2022-07-12T02:30:32;8.02;;;4.53;;
29314;SDS011;16320;53.954;9.506;2022-07-12T02:33:37;9.73;;;5.70;;
29314;SDS011;16320;53.954;9.506;2022-07-12T02:36:41;8.73;;;5.05;;
29314;SDS011;16320;53.954;9.506;2022-07-12T02:39:45;7.72;;;4.88;;
29314;SDS011;16320;53.954;9.506;2022-07-12T02:45:55;13.65;;;6.70;;
29314;SDS011;16320;53.954;9.506;2022-07-12T02:49:17;16.70;;;7.55;;
29314;SDS011;16320;53.954;9.506;2022-07-12T02:52:21;13.95;;;7.78;;
29314;SDS011;16320;53.954;9.506;2022-07-12T02:55:26;13.82;;;7.25;;
29314;SDS011;16320;53.954;9.506;2022-07-12T02:58:30;15.00;;;7.78;;
29314;SDS011;16320;53.954;9.506;2022-07-12T03:01:34;12.55;;;7.57;;
29314;SDS011;16320;53.954;9.506;2022-07-12T03:04:39;16.60;;;8.52;;
29314;SDS011;16320;53.954;9.506;2022-07-12T03:07:44;15.50;;;9.38;;
29314;SDS011;16320;53.954;9.506;2022-07-12T03:10:48;17.60;;;10.02;;
29314;SDS011;16320;53.954;9.506;2022-07-12T03:13:55;14.70;;;9.30;;
29314;SDS011;16320;53.954;9.506;2022-07-12T03:17:00;12.95;;;7.97;;
29314;SDS011;16320;53.954;9.506;2022-07-12T03:23:11;15.90;;;10.23;;
29314;SDS011;16320;53.954;9.506;2022-07-12T03:26:15;13.38;;;8.63;;
29314;SDS011;16320;53.954;9.506;2022-07-12T03:29:20;16.73;;;10.07;;
29314;SDS011;16320;53.954;9.506;2022-07-12T03:35:28;14.70;;;9.07;;
29314;SDS011;16320;53.954;9.506;2022-07-12T03:38:32;14.18;;;8.95;;
29314;SDS011;16320;53.954;9.506;2022-07-12T03:41:37;14.27;;;9.02;;
29314;SDS011;16320;53.954;9.506;2022-07-12T03:44:41;17.40;;;8.30;;
29314;SDS011;16320;53.954;9.506;2022-07-12T03:47:47;15.18;;;8.30;;
29314;SDS011;16320;53.954;9.506;2022-07-12T03:50:52;13.77;;;8.45;;
29314;SDS011;16320;53.954;9.506;2022-07-12T04:00:17;11.38;;;7.03;;
29314;SDS011;16320;53.954;9.506;2022-07-12T04:03:21;10.10;;;6.40;;
29314;SDS011;16320;53.954;9.506;2022-07-12T04:06:25;7.93;;;5.20;;
29314;SDS011;16320;53.954;9.506;2022-07-12T04:09:30;8.82;;;5.88;;
29314;SDS011;16320;53.954;9.506;2022-07-12T04:12:35;9.50;;;6.60;;
29314;SDS011;16320;53.954;9.506;2022-07-12T04:15:41;7.82;;;5.80;;
29314;SDS011;16320;53.954;9.506;2022-07-12T04:18:47;7.53;;;4.90;;
29314;SDS011;16320;53.954;9.506;2022-07-12T04:21:52;5.82;;;4.40;;
29314;SDS011;16320;53.954;9.506;2022-07-12T04:24:59;7.28;;;5.18;;
29314;SDS011;16320;53.954;9.506;2022-07-12T04:28:03;8.93;;;5.75;;
29314;SDS011;16320;53.954;9.506;2022-07-12T04:31:08;10.48;;;5.30;;
29314;SDS011;16320;53.954;9.506;2022-07-12T04:34:13;7.78;;;4.68;;
29314;SDS011;16320;53.954;9.506;2022-07-12T04:37:21;6.03;;;4.30;;
29314;SDS011;16320;53.954;9.506;2022-07-12T04:40:25;7.40;;;3.83;;
29314;SDS011;16320;53.954;9.506;2022-07-12T04:43:30;4.38;;;3.15;;
29314;SDS011;16320;53.954;9.506;2022-07-12T04:46:34;9.57;;;4.53;;
29314;SDS011;16320;53.954;9.506;2022-07-12T04:49:39;7.57;;;4.80;;
29314;SDS011;16320;53.954;9.506;2022-07-12T04:52:43;11.63;;;4.20;;
29314;SDS011;16320;53.954;9.506;2022-07-12T04:55:48;5.03;;;3.88;;
29314;SDS011;16320;53.954;9.506;2022-07-12T04:58:52;6.07;;;3.67;;
29314;SDS011;16320;53.954;9.506;2022-07-12T05:02:02;8.27;;;4.25;;
29314;SDS011;16320;53.954;9.506;2022-07-12T05:05:08;7.13;;;4.15;;
29314;SDS011;16320;53.954;9.506;2022-07-12T05:08:12;7.13;;;3.45;;
29314;SDS011;16320;53.954;9.506;2022-07-12T05:11:17;5.30;;;2.80;;
29314;SDS011;16320;53.954;9.506;2022-07-12T05:14:21;5.80;;;3.70;;
29314;SDS011;16320;53.954;9.506;2022-07-12T05:17:26;5.43;;;3.13;;
29314;SDS011;16320;53.954;9.506;2022-07-12T05:20:30;3.15;;;2.75;;
29314;SDS011;16320;53.954;9.506;2022-07-12T05:23:35;4.32;;;2.90;;
29314;SDS011;16320;53.954;9.506;2022-07-12T05:29:43;4.57;;;3.13;;
29314;SDS011;16320;53.954;9.506;2022-07-12T05:32:48;5.07;;;2.35;;
29314;SDS011;16320;53.954;9.506;2022-07-12T05:35:54;4.07;;;2.58;;
29314;SDS011;16320;53.954;9.506;2022-07-12T05:42:02;8.23;;;2.60;;
29314;SDS011;16320;53.954;9.506;2022-07-12T05:45:07;4.20;;;2.70;;
29314;SDS011;16320;53.954;9.506;2022-07-12T05:48:12;6.65;;;2.55;;
29314;SDS011;16320;53.954;9.506;2022-07-12T05:51:16;2.42;;;2.05;;
29314;SDS011;16320;53.954;9.506;2022-07-12T05:54:39;7.25;;;3.15;;
29314;SDS011;16320;53.954;9.506;2022-07-12T05:57:44;3.72;;;2.53;;
29314;SDS011;16320;53.954;9.506;2022-07-12T06:03:52;9.48;;;3.03;;
29314;SDS011;16320;53.954;9.506;2022-07-12T06:06:56;4.68;;;2.92;;
29314;SDS011;16320;53.954;9.506;2022-07-12T06:10:01;5.53;;;2.60;;
29314;SDS011;16320;53.954;9.506;2022-07-12T06:13:07;4.55;;;2.42;;
29314;SDS011;16320;53.954;9.506;2022-07-12T06:16:13;3.58;;;2.30;;
29314;SDS011;16320;53.954;9.506;2022-07-12T06:19:17;5.95;;;2.53;;
29314;SDS011;16320;53.954;9.506;2022-07-12T06:22:21;5.25;;;2.50;;
29314;SDS011;16320;53.954;9.506;2022-07-12T06:25:26;4.70;;;2.70;;
29314;SDS011;16320;53.954;9.506;2022-07-12T06:28:47;3.53;;;2.22;;
29314;SDS011;16320;53.954;9.506;2022-07-12T06:31:52;2.85;;;2.22;;
29314;SDS011;16320;53.954;9.506;2022-07-12T06:34:56;3.60;;;2.13;;
29314;SDS011;16320;53.954;9.506;2022-07-12T06:38:01;2.38;;;2.17;;
29314;SDS011;16320;53.954;9.506;2022-07-12T06:41:05;3.15;;;2.00;;
29314;SDS011;16320;53.954;9.506;2022-07-12T06:44:10;5.32;;;2.10;;
29314;SDS011;16320;53.954;9.506;2022-07-12T06:47:14;5.60;;;2.55;;
29314;SDS011;16320;53.954;9.506;2022-07-12T06:50:19;3.83;;;2.30;;
29314;SDS011;16320;53.954;9.506;2022-07-12T06:53:23;4.00;;;2.70;;
29314;SDS011;16320;53.954;9.506;2022-07-12T06:56:27;4.63;;;2.22;;
29314;SDS011;16320;53.954;9.506;2022-07-12T06:59:32;7.63;;;2.72;;
29314;SDS011;16320;53.954;9.506;2022-07-12T07:02:40;4.78;;;3.10;;
29314;SDS011;16320;53.954;9.506;2022-07-12T07:05:45;8.63;;;3.78;;
29314;SDS011;16320;53.954;9.506;2022-07-12T07:08:49;5.30;;;3.65;;
29314;SDS011;16320;53.954;9.506;2022-07-12T07:11:57;7.40;;;3.80;;
29314;SDS011;16320;53.954;9.506;2022-07-12T07:18:05;4.35;;;3.20;;
29314;SDS011;16320;53.954;9.506;2022-07-12T07:21:11;6.80;;;3.63;;
29314;SDS011;16320;53.954;9.506;2022-07-12T07:24:16;9.27;;;3.97;;
29314;SDS011;16320;53.954;9.506;2022-07-12T07:27:20;4.88;;;3.70;;
29314;SDS011;16320;53.954;9.506;2022-07-12T07:30:25;9.18;;;4.40;;
29314;SDS011;16320;53.954;9.506;2022-07-12T07:33:48;9.30;;;3.75;;
29314;SDS011;16320;53.954;9.506;2022-07-12T07:36:52;7.85;;;4.13;;
29314;SDS011;16320;53.954;9.506;2022-07-12T07:39:57;7.90;;;4.15;;
29314;SDS011;16320;53.954;9.506;2022-07-12T07:43:01;6.88;;;4.15;;
29314;SDS011;16320;53.954;9.506;2022-07-12T07:46:06;3.75;;;3.28;;
29314;SDS011;16320;53.954;9.506;2022-07-12T07:49:11;5.18;;;2.90;;
29314;SDS011;16320;53.954;9.506;2022-07-12T07:52:15;5.43;;;2.38;;
29314;SDS011;16320;53.954;9.506;2022-07-12T07:55:20;2.80;;;2.05;;
29314;SDS011;16320;53.954;9.506;2022-07-12T07:58:24;1.98;;;1.73;;
29314;SDS011;16320;53.954;9.506;2022-07-12T08:01:28;8.07;;;2.90;;
29314;SDS011;16320;53.954;9.506;2022-07-12T08:04:51;4.43;;;3.10;;
29314;SDS011;16320;53.954;9.506;2022-07-12T08:07:56;5.82;;;2.58;;
29314;SDS011;16320;53.954;9.506;2022-07-12T08:11:01;1.95;;;1.70;;
29314;SDS011;16320;53.954;9.506;2022-07-12T08:14:06;2.13;;;1.92;;
29314;SDS011;16320;53.954;9.506;2022-07-12T08:17:12;6.68;;;1.92;;
29314;SDS011;16320;53.954;9.506;2022-07-12T08:20:16;2.90;;;1.30;;
29314;SDS011;16320;53.954;9.506;2022-07-12T08:23:41;2.75;;;1.67;;
29314;SDS011;16320;53.954;9.506;2022-07-12T08:26:45;1.95;;;1.50;;
29314;SDS011;16320;53.954;9.506;2022-07-12T08:29:50;1.45;;;1.30;;
29314;SDS011;16320;53.954;9.506;2022-07-12T08:32:54;1.70;;;1.50;;
29314;SDS011;16320;53.954;9.506;2022-07-12T08:35:59;3.90;;;1.58;;
29314;SDS011;16320;53.954;9.506;2022-07-12T08:39:04;2.20;;;1.55;;
29314;SDS011;16320;53.954;9.506;2022-07-12T08:42:08;1.80;;;1.55;;
29314;SDS011;16320;53.954;9.506;2022-07-12T08:45:17;2.47;;;2.10;;
29314;SDS011;16320;53.954;9.506;2022-07-12T08:48:21;2.05;;;1.85;;
29314;SDS011;16320;53.954;9.506;2022-07-12T08:51:26;3.13;;;2.00;;
29314;SDS011;16320;53.954;9.506;2022-07-12T08:54:40;2.13;;;1.50;;
29314;SDS011;16320;53.954;9.506;2022-07-12T08:57:44;3.93;;;2.17;;
29314;SDS011;16320;53.954;9.506;2022-07-12T09:00:49;9.13;;;2.38;;
29314;SDS011;16320;53.954;9.506;2022-07-12T09:04:13;1.73;;;1.58;;
29314;SDS011;16320;53.954;9.506;2022-07-12T09:07:19;6.57;;;2.67;;
29314;SDS011;16320;53.954;9.506;2022-07-12T09:10:23;2.95;;;2.40;;
29314;SDS011;16320;53.954;9.506;2022-07-12T09:17:13;3.83;;;2.58;;
29314;SDS011;16320;53.954;9.506;2022-07-12T09:20:17;21.13;;;3.17;;
29314;SDS011;16320;53.954;9.506;2022-07-12T09:23:21;2.47;;;2.28;;
29314;SDS011;16320;53.954;9.506;2022-07-12T09:26:30;2.53;;;1.90;;
29314;SDS011;16320;53.954;9.506;2022-07-12T09:29:48;4.90;;;2.92;;
29314;SDS011;16320;53.954;9.506;2022-07-12T09:33:05;2.33;;;2.10;;
29314;SDS011;16320;53.954;9.506;2022-07-12T09:36:29;2.65;;;2.45;;
29314;SDS011;16320;53.954;9.506;2022-07-12T09:39:33;7.70;;;2.67;;
29314;SDS011;16320;53.954;9.506;2022-07-12T09:45:44;5.38;;;2.55;;
29314;SDS011;16320;53.954;9.506;2022-07-12T09:48:50;2.88;;;2.20;;
29314;SDS011;16320;53.954;9.506;2022-07-12T09:51:56;4.28;;;3.00;;
29314;SDS011;16320;53.954;9.506;2022-07-12T09:55:02;2.60;;;2.40;;
29314;SDS011;16320;53.954;9.506;2022-07-12T09:58:09;5.55;;;3.35;;
29314;SDS011;16320;53.954;9.506;2022-07-12T10:01:17;6.30;;;3.95;;
29314;SDS011;16320;53.954;9.506;2022-07-12T10:04:22;5.75;;;4.13;;
29314;SDS011;16320;53.954;9.506;2022-07-12T10:07:26;6.63;;;3.90;;
29314;SDS011;16320;53.954;9.506;2022-07-12T10:10:31;7.03;;;4.25;;
29314;SDS011;16320;53.954;9.506;2022-07-12T10:13:36;12.10;;;4.10;;
29314;SDS011;16320;53.954;9.506;2022-07-12T10:16:42;4.50;;;3.40;;
29314;SDS011;16320;53.954;9.506;2022-07-12T10:19:47;7.00;;;4.05;;
29314;SDS011;16320;53.954;9.506;2022-07-12T10:22:58;3.83;;;3.50;;
29314;SDS011;16320;53.954;9.506;2022-07-12T10:26:27;4.00;;;3.58;;
29314;SDS011;16320;53.954;9.506;2022-07-12T10:29:43;4.00;;;3.20;;
29314;SDS011;16320;53.954;9.506;2022-07-12T10:32:54;5.00;;;3.70;;
29314;SDS011;16320;53.954;9.506;2022-07-12T10:36:03;3.17;;;2.88;;
29314;SDS011;16320;53.954;9.506;2022-07-12T10:39:17;3.10;;;2.80;;
29314;SDS011;16320;53.954;9.506;2022-07-12T10:42:27;9.77;;;3.60;;
29314;SDS011;16320;53.954;9.506;2022-07-12T10:45:32;4.10;;;3.55;;
29314;SDS011;16320;53.954;9.506;2022-07-12T10:48:42;6.68;;;2.97;;
29314;SDS011;16320;53.954;9.506;2022-07-12T10:55:15;4.18;;;3.67;;
29314;SDS011;16320;53.954;9.506;2022-07-12T10:58:32;5.40;;;3.28;;
29314;SDS011;16320;53.954;9.506;2022-07-12T11:01:48;3.92;;;3.53;;
29314;SDS011;16320;53.954;9.506;2022-07-12T11:04:55;3.88;;;3.45;;
29314;SDS011;16320;53.954;9.506;2022-07-12T11:07:59;3.40;;;3.10;;
29314;SDS011;16320;53.954;9.506;2022-07-12T11:11:10;3.47;;;3.17;;
29314;SDS011;16320;53.954;9.506;2022-07-12T11:14:25;4.38;;;2.67;;
29314;SDS011;16320;53.954;9.506;2022-07-12T11:17:36;2.78;;;2.28;;
29314;SDS011;16320;53.954;9.506;2022-07-12T11:20:42;4.85;;;2.88;;
29314;SDS011;16320;53.954;9.506;2022-07-12T11:23:46;5.20;;;2.85;;
29314;SDS011;16320;53.954;9.506;2022-07-12T11:26:51;5.35;;;3.53;;
29314;SDS011;16320;53.954;9.506;2022-07-12T11:30:00;3.70;;;3.38;;
29314;SDS011;16320;53.954;9.506;2022-07-12T11:33:05;3.85;;;3.35;;
29314;SDS011;16320;53.954;9.506;2022-07-12T11:36:12;3.17;;;2.88;;
29314;SDS011;16320;53.954;9.506;2022-07-12T11:39:17;4.22;;;3.20;;
29314;SDS011;16320;53.954;9.506;2022-07-12T11:42:37;2.80;;;2.45;;
29314;SDS011;16320;53.954;9.506;2022-07-12T11:45:56;2.92;;;2.22;;
29314;SDS011;16320;53.954;9.506;2022-07-12T11:49:00;5.38;;;1.98;;
29314;SDS011;16320;53.954;9.506;2022-07-12T11:52:05;2.85;;;1.50;;
29314;SDS011;16320;53.954;9.506;2022-07-12T11:55:10;4.53;;;1.98;;
29314;SDS011;16320;53.954;9.506;2022-07-12T11:58:15;2.03;;;1.75;;
29314;SDS011;16320;53.954;9.506;2022-07-12T12:01:20;3.10;;;1.08;;
29314;SDS011;16320;53.954;9.506;2022-07-12T12:04:25;2.03;;;1.40;;
29314;SDS011;16320;53.954;9.506;2022-07-12T12:07:30;2.05;;;1.20;;
29314;SDS011;16320;53.954;9.506;2022-07-12T12:10:35;3.22;;;1.30;;
29314;SDS011;16320;53.954;9.506;2022-07-12T12:13:42;1.95;;;0.90;;
29314;SDS011;16320;53.954;9.506;2022-07-12T12:16:59;2.15;;;1.00;;
29314;SDS011;16320;53.954;9.506;2022-07-12T12:20:07;1.00;;;0.68;;
29314;SDS011;16320;53.954;9.506;2022-07-12T12:23:20;0.70;;;0.70;;
29314;SDS011;16320;53.954;9.506;2022-07-12T12:26:24;4.88;;;1.10;;
29314;SDS011;16320;53.954;9.506;2022-07-12T12:29:40;2.50;;;0.85;;
29314;SDS011;16320;53.954;9.506;2022-07-12T12:35:53;3.38;;;1.00;;
29314;SDS011;16320;53.954;9.506;2022-07-12T12:39:00;0.90;;;0.85;;
29314;SDS011;16320;53.954;9.506;2022-07-12T12:42:05;1.23;;;0.88;;
29314;SDS011;16320;53.954;9.506;2022-07-12T12:45:16;1.17;;;0.70;;
29314;SDS011;16320;53.954;9.506;2022-07-12T12:48:26;1.67;;;0.80;;
29314;SDS011;16320;53.954;9.506;2022-07-12T12:51:42;1.13;;;1.05;;
29314;SDS011;16320;53.954;9.506;2022-07-12T12:55:02;1.90;;;0.95;;
29314;SDS011;16320;53.954;9.506;2022-07-12T12:58:07;1.17;;;1.08;;
29314;SDS011;16320;53.954;9.506;2022-07-12T13:01:13;3.08;;;1.33;;
29314;SDS011;16320;53.954;9.506;2022-07-12T13:04:17;2.47;;;1.30;;
29314;SDS011;16320;53.954;9.506;2022-07-12T13:07:22;3.88;;;1.50;;
29314;SDS011;16320;53.954;9.506;2022-07-12T13:10:26;2.78;;;1.63;;
29314;SDS011;16320;53.954;9.506;2022-07-12T13:13:31;2.47;;;1.98;;
29314;SDS011;16320;53.954;9.506;2022-07-12T13:16:35;2.95;;;2.40;;
29314;SDS011;16320;53.954;9.506;2022-07-12T13:19:40;3.20;;;2.20;;
29314;SDS011;16320;53.954;9.506;2022-07-12T13:22:45;4.35;;;3.35;;
29314;SDS011;16320;53.954;9.506;2022-07-12T13:25:50;8.35;;;4.10;;
29314;SDS011;16320;53.954;9.506;2022-07-12T13:28:57;5.57;;;3.53;;
29314;SDS011;16320;53.954;9.506;2022-07-12T13:32:02;8.75;;;3.80;;
29314;SDS011;16320;53.954;9.506;2022-07-12T13:35:07;4.88;;;4.38;;
29314;SDS011;16320;53.954;9.506;2022-07-12T13:38:14;4.30;;;3.30;;
29314;SDS011;16320;53.954;9.506;2022-07-12T13:41:19;4.53;;;3.25;;
29314;SDS011;16320;53.954;9.506;2022-07-12T13:44:23;6.97;;;3.60;;
29314;SDS011;16320;53.954;9.506;2022-07-12T13:47:27;8.07;;;3.85;;
29314;SDS011;16320;53.954;9.506;2022-07-12T13:50:32;4.32;;;3.40;;
29314;SDS011;16320;53.954;9.506;2022-07-12T13:53:37;5.82;;;4.10;;
29314;SDS011;16320;53.954;9.506;2022-07-12T13:56:41;5.78;;;3.20;;
29314;SDS011;16320;53.954;9.506;2022-07-12T13:59:45;11.70;;;3.95;;
29314;SDS011;16320;53.954;9.506;2022-07-12T14:02:50;3.38;;;2.17;;
29314;SDS011;16320;53.954;9.506;2022-07-12T14:05:58;5.68;;;1.73;;
29314;SDS011;16320;53.954;9.506;2022-07-12T14:09:02;4.80;;;1.58;;
29314;SDS011;16320;53.954;9.506;2022-07-12T14:12:06;2.28;;;2.08;;
29314;SDS011;16320;53.954;9.506;2022-07-12T14:15:13;2.20;;;1.33;;
29314;SDS011;16320;53.954;9.506;2022-07-12T14:18:18;2.38;;;1.23;;
29314;SDS011;16320;53.954;9.506;2022-07-12T14:21:23;6.35;;;1.80;;
29314;SDS011;16320;53.954;9.506;2022-07-12T14:24:27;2.45;;;1.23;;
29314;SDS011;16320;53.954;9.506;2022-07-12T14:27:33;2.33;;;1.08;;
29314;SDS011;16320;53.954;9.506;2022-07-12T14:30:42;0.98;;;0.88;;
29314;SDS011;16320;53.954;9.506;2022-07-12T14:33:47;1.67;;;1.13;;
29314;SDS011;16320;53.954;9.506;2022-07-12T14:39:57;4.82;;;1.00;;
29314;SDS011;16320;53.954;9.506;2022-07-12T14:43:01;0.82;;;0.80;;
29314;SDS011;16320;53.954;9.506;2022-07-12T14:46:05;0.98;;;0.70;;
29314;SDS011;16320;53.954;9.506;2022-07-12T14:49:10;1.95;;;0.80;;
29314;SDS011;16320;53.954;9.506;2022-07-12T14:52:15;0.85;;;0.85;;
29314;SDS011;16320;53.954;9.506;2022-07-12T14:55:20;0.93;;;0.40;;
29314;SDS011;16320;53.954;9.506;2022-07-12T14:58:24;0.70;;;0.60;;
29314;SDS011;16320;53.954;9.506;2022-07-12T15:01:29;0.70;;;0.70;;
29314;SDS011;16320;53.954;9.506;2022-07-12T15:04:34;3.13;;;0.60;;
29314;SDS011;16320;53.954;9.506;2022-07-12T15:07:38;0.77;;;0.73;;
29314;SDS011;16320;53.954;9.506;2022-07-12T15:10:42;0.80;;;0.80;;
29314;SDS011;16320;53.954;9.506;2022-07-12T15:13:47;1.00;;;0.70;;
29314;SDS011;16320;53.954;9.506;2022-07-12T15:16:51;0.80;;;0.60;;
29314;SDS011;16320;53.954;9.506;2022-07-12T15:19:56;5.40;;;0.90;;
29314;SDS011;16320;53.954;9.506;2022-07-12T15:23:00;1.60;;;0.50;;
29314;SDS011;16320;53.954;9.506;2022-07-12T15:26:06;1.60;;;0.50;;
29314;SDS011;16320;53.954;9.506;2022-07-12T15:29:11;1.25;;;0.50;;
29314;SDS011;16320;53.954;9.506;2022-07-12T15:32:16;0.70;;;0.50;;
29314;SDS011;16320;53.954;9.506;2022-07-12T15:35:21;0.77;;;0.52;;
29314;SDS011;16320;53.954;9.506;2022-07-12T15:38:25;0.50;;;0.50;;
29314;SDS011;16320;53.954;9.506;2022-07-12T15:41:29;0.65;;;0.60;;
29314;SDS011;16320;53.954;9.506;2022-07-12T15:44:34;0.60;;;0.60;;
29314;SDS011;16320;53.954;9.506;2022-07-12T15:47:38;0.68;;;0.50;;
29314;SDS011;16320;53.954;9.506;2022-07-12T15:50:43;1.80;;;0.47;;
29314;SDS011;16320;53.954;9.506;2022-07-12T15:53:55;0.70;;;0.50;;
29314;SDS011;16320;53.954;9.506;2022-07-12T15:56:59;1.23;;;0.57;;
29314;SDS011;16320;53.954;9.506;2022-07-12T16:00:07;0.65;;;0.63;;
29314;SDS011;16320;53.954;9.506;2022-07-12T16:03:14;4.15;;;0.77;;
29314;SDS011;16320;53.954;9.506;2022-07-12T16:06:21;0.45;;;0.43;;
29314;SDS011;16320;53.954;9.506;2022-07-12T16:09:26;0.50;;;0.50;;
29314;SDS011;16320;53.954;9.506;2022-07-12T16:12:30;1.98;;;0.63;;
29314;SDS011;16320;53.954;9.506;2022-07-12T16:15:35;1.33;;;0.40;;
29314;SDS011;16320;53.954;9.506;2022-07-12T16:18:39;0.40;;;0.40;;
29314;SDS011;16320;53.954;9.506;2022-07-12T16:21:44;0.88;;;0.50;;
29314;SDS011;16320;53.954;9.506;2022-07-12T16:24:49;0.82;;;0.40;;
29314;SDS011;16320;53.954;9.506;2022-07-12T16:27:54;1.05;;;0.40;;
29314;SDS011;16320;53.954;9.506;2022-07-12T16:30:58;0.30;;;0.30;;
29314;SDS011;16320;53.954;9.506;2022-07-12T16:34:03;1.05;;;0.50;;
29314;SDS011;16320;53.954;9.506;2022-07-12T16:37:07;0.93;;;0.40;;
29314;SDS011;16320;53.954;9.506;2022-07-12T16:40:13;8.15;;;0.77;;
29314;SDS011;16320;53.954;9.506;2022-07-12T16:43:20;1.42;;;0.50;;
29314;SDS011;16320;53.954;9.506;2022-07-12T16:46:25;0.70;;;0.43;;
29314;SDS011;16320;53.954;9.506;2022-07-12T16:49:30;1.85;;;0.40;;
29314;SDS011;16320;53.954;9.506;2022-07-12T16:52:34;1.00;;;0.50;;
29314;SDS011;16320;53.954;9.506;2022-07-12T16:55:38;0.40;;;0.40;;
29314;SDS011;16320;53.954;9.506;2022-07-12T16:58:43;0.68;;;0.50;;
29314;SDS011;16320;53.954;9.506;2022-07-12T17:01:48;3.67;;;0.40;;
29314;SDS011;16320;53.954;9.506;2022-07-12T17:04:53;1.02;;;0.30;;
29314;SDS011;16320;53.954;9.506;2022-07-12T17:07:58;2.90;;;0.40;;
29314;SDS011;16320;53.954;9.506;2022-07-12T17:11:02;0.40;;;0.40;;
29314;SDS011;16320;53.954;9.506;2022-07-12T17:14:07;10.85;;;0.63;;
29314;SDS011;16320;53.954;9.506;2022-07-12T17:17:13;1.10;;;0.40;;
29314;SDS011;16320;53.954;9.506;2022-07-12T17:20:17;0.43;;;0.30;;
29314;SDS011;16320;53.954;9.506;2022-07-12T17:23:22;1.20;;;0.40;;
29314;SDS011;16320;53.954;9.506;2022-07-12T17:26:26;2.45;;;0.40;;
29314;SDS011;16320;53.954;9.506;2022-07-12T17:29:31;0.98;;;0.22;;
29314;SDS011;16320;53.954;9.506;2022-07-12T17:32:36;0.40;;;0.40;;
29314;SDS011;16320;53.954;9.506;2022-07-12T17:35:40;2.65;;;0.30;;
29314;SDS011;16320;53.954;9.506;2022-07-12T17:38:45;0.28;;;0.28;;
29314;SDS011;16320;53.954;9.506;2022-07-12T17:41:50;1.33;;;0.45;;
29314;SDS011;16320;53.954;9.506;2022-07-12T17:44:55;1.58;;;0.30;;
29314;SDS011;16320;53.954;9.506;2022-07-12T17:48:00;1.63;;;0.30;;
29314;SDS011;16320;53.954;9.506;2022-07-12T17:51:04;0.35;;;0.35;;
29314;SDS011;16320;53.954;9.506;2022-07-12T17:54:09;1.02;;;0.40;;
29314;SDS011;16320;53.954;9.506;2022-07-12T17:57:14;15.45;;;0.70;;
29314;SDS011;16320;53.954;9.506;2022-07-12T18:00:18;0.60;;;0.40;;
29314;SDS011;16320;53.954;9.506;2022-07-12T18:03:22;3.13;;;0.45;;
29314;SDS011;16320;53.954;9.506;2022-07-12T18:06:28;3.28;;;0.85;;
29314;SDS011;16320;53.954;9.506;2022-07-12T18:09:32;0.35;;;0.30;;
29314;SDS011;16320;53.954;9.506;2022-07-12T18:12:37;0.60;;;0.40;;
29314;SDS011;16320;53.954;9.506;2022-07-12T18:15:59;0.40;;;0.40;;
29314;SDS011;16320;53.954;9.506;2022-07-12T18:19:05;0.47;;;0.40;;
29314;SDS011;16320;53.954;9.506;2022-07-12T18:22:10;0.95;;;0.50;;
29314;SDS011;16320;53.954;9.506;2022-07-12T18:25:14;0.77;;;0.47;;
29314;SDS011;16320;53.954;9.506;2022-07-12T18:28:19;0.50;;;0.50;;
29314;SDS011;16320;53.954;9.506;2022-07-12T18:31:24;0.80;;;0.50;;
29314;SDS011;16320;53.954;9.506;2022-07-12T18:34:30;1.70;;;0.60;;
29314;SDS011;16320;53.954;9.506;2022-07-12T18:37:36;1.63;;;0.65;;
29314;SDS011;16320;53.954;9.506;2022-07-12T18:40:40;0.75;;;0.43;;
29314;SDS011;16320;53.954;9.506;2022-07-12T18:43:45;0.50;;;0.50;;
29314;SDS011;16320;53.954;9.506;2022-07-12T18:46:49;0.45;;;0.45;;
29314;SDS011;16320;53.954;9.506;2022-07-12T18:49:55;0.82;;;0.60;;
29314;SDS011;16320;53.954;9.506;2022-07-12T18:52:59;0.85;;;0.80;;
29314;SDS011;16320;53.954;9.506;2022-07-12T18:56:04;0.93;;;0.52;;
29314;SDS011;16320;53.954;9.506;2022-07-12T18:59:08;0.93;;;0.82;;
29314;SDS011;16320;53.954;9.506;2022-07-12T19:02:12;0.55;;;0.50;;
29314;SDS011;16320;53.954;9.506;2022-07-12T19:05:17;2.95;;;0.93;;
29314;SDS011;16320;53.954;9.506;2022-07-12T19:08:22;0.77;;;0.50;;
29314;SDS011;16320;53.954;9.506;2022-07-12T19:11:26;0.80;;;0.47;;
29314;SDS011;16320;53.954;9.506;2022-07-12T19:14:32;0.60;;;0.60;;
29314;SDS011;16320;53.954;9.506;2022-07-12T19:17:36;0.52;;;0.50;;
29314;SDS011;16320;53.954;9.506;2022-07-12T19:20:41;0.70;;;0.70;;
29314;SDS011;16320;53.954;9.506;2022-07-12T19:23:45;1.40;;;0.70;;
29314;SDS011;16320;53.954;9.506;2022-07-12T19:26:49;2.13;;;0.70;;
29314;SDS011;16320;53.954;9.506;2022-07-12T19:29:54;2.55;;;0.65;;
29314;SDS011;16320;53.954;9.506;2022-07-12T19:32:58;1.10;;;0.50;;